createdAt,value
2019-04-27T00:01:16.000Z,2.8
2019-04-27T00:04:17.000Z,2.8
2019-04-27T00:07:16.000Z,2.8
2019-04-27T00:10:16.000Z,2.8
2019-04-27T00:13:16.000Z,2.8
2019-04-27T00:16:15.000Z,2.8
2019-04-27T00:19:15.000Z,2.8
2019-04-27T00:22:16.000Z,2.8
2019-04-27T00:25:16.000Z,2.8
2019-04-27T00:28:15.000Z,2.8
2019-04-27T00:31:15.000Z,2.8
2019-04-27T00:34:15.000Z,2.8
2019-04-27T00:37:15.000Z,2.8
2019-04-27T00:40:15.000Z,2.8
2019-04-27T00:43:15.000Z,2.8
2019-04-27T00:46:16.000Z,2.8
2019-04-27T00:49:15.000Z,2.8
2019-04-27T00:52:16.000Z,2.8
2019-04-27T00:55:15.000Z,2.8
2019-04-27T00:58:16.000Z,2.8
2019-04-27T01:01:16.000Z,2.6
2019-04-27T01:04:15.000Z,2.6
2019-04-27T01:07:15.000Z,2.6
2019-04-27T01:10:15.000Z,2.6
2019-04-27T01:13:16.000Z,2.6
2019-04-27T01:16:15.000Z,2.6
2019-04-27T01:19:15.000Z,2.6
2019-04-27T01:22:15.000Z,2.6
2019-04-27T01:25:15.000Z,2.6
2019-04-27T01:28:15.000Z,2.6
2019-04-27T01:31:15.000Z,2.6
2019-04-27T01:34:15.000Z,2.6
2019-04-27T01:37:15.000Z,2.6
2019-04-27T01:40:16.000Z,2.6
2019-04-27T01:43:15.000Z,2.6
2019-04-27T01:46:15.000Z,2.6
2019-04-27T01:49:16.000Z,2.6
2019-04-27T01:52:16.000Z,2.6
2019-04-27T01:55:16.000Z,2.6
2019-04-27T01:58:15.000Z,2.6
2019-04-27T02:01:15.000Z,2.4
2019-04-27T02:04:15.000Z,2.4
2019-04-27T02:07:16.000Z,2.4
2019-04-27T02:10:16.000Z,2.4
2019-04-27T02:13:16.000Z,2.4
2019-04-27T02:16:15.000Z,2.4
2019-04-27T02:19:15.000Z,2.4
2019-04-27T02:22:15.000Z,2.4
2019-04-27T02:25:15.000Z,2.4
2019-04-27T02:28:15.000Z,2.4
2019-04-27T02:31:15.000Z,2.4
2019-04-27T02:34:15.000Z,2.4
2019-04-27T02:37:15.000Z,2.4
2019-04-27T02:40:15.000Z,2.4
2019-04-27T02:43:15.000Z,2.4
2019-04-27T02:46:15.000Z,2.4
2019-04-27T02:49:16.000Z,2.4
2019-04-27T02:52:16.000Z,2.4
2019-04-27T02:55:16.000Z,2.4
2019-04-27T02:58:15.000Z,2.4
2019-04-27T03:01:16.000Z,2.3
2019-04-27T03:04:16.000Z,2.3
2019-04-27T03:07:16.000Z,2.3
2019-04-27T03:10:16.000Z,2.3
2019-04-27T03:13:16.000Z,2.3
2019-04-27T03:16:16.000Z,2.3
2019-04-27T03:19:16.000Z,2.3
2019-04-27T03:22:15.000Z,2.3
2019-04-27T03:25:16.000Z,2.3
2019-04-27T03:28:16.000Z,2.3
2019-04-27T03:31:16.000Z,2.3
2019-04-27T03:34:16.000Z,2.3
2019-04-27T03:37:16.000Z,2.3
2019-04-27T03:40:16.000Z,2.3
2019-04-27T03:43:16.000Z,2.3
2019-04-27T03:46:15.000Z,2.3
2019-04-27T03:49:15.000Z,2.3
2019-04-27T03:52:15.000Z,2.3
2019-04-27T03:55:15.000Z,2.3
2019-04-27T03:58:15.000Z,2.3
2019-04-27T04:01:16.000Z,2.2
2019-04-27T04:04:15.000Z,2.2
2019-04-27T04:07:15.000Z,2.2
2019-04-27T04:10:15.000Z,2.2
2019-04-27T04:13:15.000Z,2.2
2019-04-27T04:16:15.000Z,2.2
2019-04-27T04:19:16.000Z,2.2
2019-04-27T04:22:16.000Z,2.2
2019-04-27T04:25:16.000Z,2.2
2019-04-27T04:28:16.000Z,2.2
2019-04-27T04:31:16.000Z,2.2
2019-04-27T04:34:15.000Z,2.2
2019-04-27T04:37:15.000Z,2.2
2019-04-27T04:40:16.000Z,2.2
2019-04-27T04:43:16.000Z,2.2
2019-04-27T04:46:16.000Z,2.2
2019-04-27T04:49:15.000Z,2.2
2019-04-27T04:52:15.000Z,2.2
2019-04-27T04:55:15.000Z,2.2
2019-04-27T04:58:15.000Z,2.2
2019-04-27T05:01:15.000Z,2.1
2019-04-27T05:04:15.000Z,2.1
2019-04-27T05:07:15.000Z,2.1
2019-04-27T05:10:15.000Z,2.1
2019-04-27T05:13:15.000Z,2.1
2019-04-27T05:16:15.000Z,2.1
2019-04-27T05:19:15.000Z,2.1
2019-04-27T05:22:16.000Z,2.1
2019-04-27T05:25:16.000Z,2.1
2019-04-27T05:28:16.000Z,2.1
2019-04-27T05:31:15.000Z,2.1
2019-04-27T05:34:16.000Z,2.1
2019-04-27T05:37:15.000Z,2.1
2019-04-27T05:40:16.000Z,2.1
2019-04-27T05:43:16.000Z,2.1
2019-04-27T05:46:16.000Z,2.1
2019-04-27T05:49:16.000Z,2.1
2019-04-27T05:52:15.000Z,2.1
2019-04-27T05:55:15.000Z,2.1
2019-04-27T05:58:15.000Z,2.1
2019-04-27T06:01:15.000Z,2.0
2019-04-27T06:04:15.000Z,2.0
2019-04-27T06:07:15.000Z,2.0
2019-04-27T06:10:15.000Z,2.0
2019-04-27T06:13:15.000Z,2.0
2019-04-27T06:16:15.000Z,2.0
2019-04-27T06:19:15.000Z,2.0
2019-04-27T06:22:16.000Z,2.0
2019-04-27T06:25:15.000Z,2.0
2019-04-27T06:28:15.000Z,2.0
2019-04-27T06:31:15.000Z,2.0
2019-04-27T06:34:16.000Z,2.0
2019-04-27T06:37:15.000Z,2.0
2019-04-27T06:40:15.000Z,2.0
2019-04-27T06:43:15.000Z,2.0
2019-04-27T06:46:15.000Z,2.0
2019-04-27T06:49:15.000Z,2.0
2019-04-27T06:52:16.000Z,2.0
2019-04-27T06:55:16.000Z,2.0
2019-04-27T06:58:16.000Z,2.0
2019-04-27T07:01:15.000Z,2.0
2019-04-27T07:04:16.000Z,2.0
2019-04-27T07:07:16.000Z,2.0
2019-04-27T07:10:16.000Z,2.0
2019-04-27T07:13:16.000Z,2.0
2019-04-27T07:16:16.000Z,2.0
2019-04-27T07:19:15.000Z,2.0
2019-04-27T07:22:15.000Z,2.0
2019-04-27T07:25:16.000Z,2.0
2019-04-27T07:28:16.000Z,2.0
2019-04-27T07:31:16.000Z,2.0
2019-04-27T07:34:16.000Z,2.0
2019-04-27T07:37:16.000Z,2.0
2019-04-27T07:40:16.000Z,2.0
2019-04-27T07:43:16.000Z,2.0
2019-04-27T07:46:15.000Z,2.0
2019-04-27T07:49:16.000Z,2.0
2019-04-27T07:52:16.000Z,2.0
2019-04-27T07:55:16.000Z,2.0
2019-04-27T07:58:16.000Z,2.0
2019-04-27T08:01:15.000Z,2.0
2019-04-27T08:04:16.000Z,2.0
2019-04-27T08:07:15.000Z,2.0
2019-04-27T08:10:15.000Z,2.0
2019-04-27T08:13:16.000Z,2.0
2019-04-27T08:16:15.000Z,2.0
2019-04-27T08:19:16.000Z,2.0
2019-04-27T08:22:15.000Z,2.0
2019-04-27T08:25:16.000Z,2.0
2019-04-27T08:28:16.000Z,2.0
2019-04-27T08:31:16.000Z,2.0
2019-04-27T08:34:15.000Z,2.0
2019-04-27T08:37:15.000Z,2.0
2019-04-27T08:40:15.000Z,2.0
2019-04-27T08:43:15.000Z,2.0
2019-04-27T08:46:16.000Z,2.0
2019-04-27T08:49:16.000Z,2.0
2019-04-27T08:52:15.000Z,2.0
2019-04-27T08:55:16.000Z,2.0
2019-04-27T08:58:16.000Z,2.0
2019-04-27T09:01:16.000Z,2.0
2019-04-27T09:04:16.000Z,2.0
2019-04-27T09:07:16.000Z,2.0
2019-04-27T09:10:16.000Z,2.0
2019-04-27T09:13:16.000Z,2.0
2019-04-27T09:16:16.000Z,2.0
2019-04-27T09:19:16.000Z,2.0
2019-04-27T09:22:16.000Z,2.0
2019-04-27T09:25:15.000Z,2.0
2019-04-27T09:28:15.000Z,2.0
2019-04-27T09:31:15.000Z,2.0
2019-04-27T09:34:15.000Z,2.0
2019-04-27T09:37:15.000Z,2.0
2019-04-27T09:40:15.000Z,2.0
2019-04-27T09:43:15.000Z,2.0
2019-04-27T09:46:16.000Z,2.0
2019-04-27T09:49:15.000Z,2.0
2019-04-27T09:52:15.000Z,2.0
2019-04-27T09:55:15.000Z,2.0
2019-04-27T09:58:15.000Z,2.0
2019-04-27T10:01:16.000Z,2.2
2019-04-27T10:04:16.000Z,2.2
2019-04-27T10:07:15.000Z,2.2
2019-04-27T10:10:15.000Z,2.2
2019-04-27T10:13:16.000Z,2.2
2019-04-27T10:16:16.000Z,2.2
2019-04-27T10:19:16.000Z,2.2
2019-04-27T10:22:15.000Z,2.2
2019-04-27T10:25:16.000Z,2.2
2019-04-27T10:28:15.000Z,2.2
2019-04-27T10:31:15.000Z,2.2
2019-04-27T10:34:15.000Z,2.2
2019-04-27T10:37:15.000Z,2.2
2019-04-27T10:40:15.000Z,2.2
2019-04-27T10:43:15.000Z,2.2
2019-04-27T10:46:15.000Z,2.2
2019-04-27T10:49:15.000Z,2.2
2019-04-27T10:52:15.000Z,2.2
2019-04-27T10:55:15.000Z,2.2
2019-04-27T10:58:16.000Z,2.2
2019-04-27T11:01:16.000Z,2.3
2019-04-27T11:04:16.000Z,2.3
2019-04-27T11:07:15.000Z,2.3
2019-04-27T11:10:15.000Z,2.3
2019-04-27T11:13:15.000Z,2.3
2019-04-27T11:16:16.000Z,2.3
2019-04-27T11:19:16.000Z,2.3
2019-04-27T11:22:16.000Z,2.3
2019-04-27T11:25:15.000Z,2.3
2019-04-27T11:28:16.000Z,2.3
2019-04-27T11:31:16.000Z,2.3
2019-04-27T11:34:16.000Z,2.3
2019-04-27T11:37:16.000Z,2.3
2019-04-27T11:40:16.000Z,2.3
2019-04-27T11:43:15.000Z,2.3
2019-04-27T11:46:15.000Z,2.3
2019-04-27T11:49:15.000Z,2.3
2019-04-27T11:52:16.000Z,2.3
2019-04-27T11:55:16.000Z,2.3
2019-04-27T11:58:16.000Z,2.3
2019-04-27T12:01:15.000Z,2.3
2019-04-27T12:04:15.000Z,2.3
2019-04-27T12:07:15.000Z,2.3
2019-04-27T12:10:15.000Z,2.3
2019-04-27T12:13:15.000Z,2.3
2019-04-27T12:16:16.000Z,2.3
2019-04-27T12:19:15.000Z,2.3
2019-04-27T12:22:15.000Z,2.3
2019-04-27T12:25:15.000Z,2.3
2019-04-27T12:28:15.000Z,2.3
2019-04-27T12:31:16.000Z,2.3
2019-04-27T12:34:16.000Z,2.3
2019-04-27T12:37:16.000Z,2.3
2019-04-27T12:40:16.000Z,2.3
2019-04-27T12:43:15.000Z,2.3
2019-04-27T12:46:16.000Z,2.3
2019-04-27T12:49:16.000Z,2.3
2019-04-27T12:52:16.000Z,2.3
2019-04-27T12:55:15.000Z,2.3
2019-04-27T12:58:15.000Z,2.3
2019-04-27T13:01:15.000Z,2.3
2019-04-27T13:04:15.000Z,2.3
2019-04-27T13:07:16.000Z,2.3
2019-04-27T13:10:16.000Z,2.3
2019-04-27T13:13:15.000Z,2.3
2019-04-27T13:16:15.000Z,2.3
2019-04-27T13:19:15.000Z,2.3
2019-04-27T13:22:15.000Z,2.3
2019-04-27T13:25:16.000Z,2.3
2019-04-27T13:28:16.000Z,2.3
2019-04-27T13:31:16.000Z,2.3
2019-04-27T13:34:15.000Z,2.3
2019-04-27T13:37:15.000Z,2.3
2019-04-27T13:40:15.000Z,2.3
2019-04-27T13:43:15.000Z,2.3
2019-04-27T13:46:15.000Z,2.3
2019-04-27T13:49:16.000Z,2.3
2019-04-27T13:52:15.000Z,2.3
2019-04-27T13:55:15.000Z,2.3
2019-04-27T13:58:15.000Z,2.3
2019-04-27T14:01:16.000Z,2.4
2019-04-27T14:04:16.000Z,2.4
2019-04-27T14:07:16.000Z,2.4
2019-04-27T14:10:16.000Z,2.4
2019-04-27T14:13:16.000Z,2.4
2019-04-27T14:16:16.000Z,2.4
2019-04-27T14:19:16.000Z,2.4
2019-04-27T14:22:16.000Z,2.4
2019-04-27T14:25:16.000Z,2.4
2019-04-27T14:28:16.000Z,2.4
2019-04-27T14:31:16.000Z,2.4
2019-04-27T14:34:16.000Z,2.4
2019-04-27T14:37:16.000Z,2.4
2019-04-27T14:40:15.000Z,2.4
2019-04-27T14:43:16.000Z,2.4
2019-04-27T14:46:16.000Z,2.4
2019-04-27T14:49:15.000Z,2.4
2019-04-27T14:52:15.000Z,2.4
2019-04-27T14:55:16.000Z,2.4
2019-04-27T14:58:16.000Z,2.4
2019-04-27T15:01:16.000Z,2.4
2019-04-27T15:04:15.000Z,2.4
2019-04-27T15:07:16.000Z,2.4
2019-04-27T15:10:15.000Z,2.4
2019-04-27T15:13:16.000Z,2.4
2019-04-27T15:16:15.000Z,2.4
2019-04-27T16:01:14.000Z,3.4
2019-04-27T16:04:14.000Z,3.4
2019-04-27T16:07:14.000Z,3.4
2019-04-27T16:10:14.000Z,3.4
2019-04-27T16:13:14.000Z,3.4
2019-04-27T16:16:14.000Z,3.4
2019-04-27T16:19:14.000Z,3.4
2019-04-27T16:22:14.000Z,3.4
2019-04-27T16:25:14.000Z,3.4
2019-04-27T16:28:14.000Z,3.4
2019-04-27T16:31:14.000Z,3.4
2019-04-27T16:34:13.000Z,3.4
2019-04-27T16:37:13.000Z,3.4
2019-04-27T16:40:13.000Z,3.4
2019-04-27T16:43:13.000Z,3.4
2019-04-27T16:46:13.000Z,3.4
2019-04-27T16:49:14.000Z,3.4
2019-04-27T16:52:13.000Z,3.4
2019-04-27T16:55:13.000Z,3.4
2019-04-27T16:58:14.000Z,3.4
2019-04-27T17:01:13.000Z,2.9
2019-04-27T17:04:14.000Z,2.9
2019-04-27T17:07:14.000Z,2.9
2019-04-27T17:10:14.000Z,2.9
2019-04-27T17:13:13.000Z,2.9
2019-04-27T17:16:13.000Z,2.9
2019-04-27T17:19:13.000Z,2.9
2019-04-27T17:22:13.000Z,2.9
2019-04-27T17:25:13.000Z,2.9
2019-04-27T17:28:14.000Z,2.9
2019-04-27T17:31:13.000Z,2.9
2019-04-27T17:34:13.000Z,2.9
2019-04-27T17:37:13.000Z,2.9
2019-04-27T17:40:13.000Z,2.9
2019-04-27T17:43:13.000Z,2.9
2019-04-27T17:46:13.000Z,2.9
2019-04-27T17:49:13.000Z,2.9
2019-04-27T17:52:13.000Z,2.9
2019-04-27T17:55:13.000Z,2.9
2019-04-27T17:58:13.000Z,2.9
2019-04-27T18:01:14.000Z,2.5
2019-04-27T18:04:14.000Z,2.5
2019-04-27T19:01:07.000Z,1.9
2019-04-27T19:04:07.000Z,1.9
2019-04-27T19:07:07.000Z,1.9
2019-04-27T19:10:07.000Z,1.9
2019-04-27T19:13:07.000Z,1.9
2019-04-27T19:16:07.000Z,1.9
2019-04-27T19:19:07.000Z,1.9
2019-04-27T19:22:06.000Z,1.9
2019-04-27T19:25:06.000Z,1.9
2019-04-27T19:28:07.000Z,1.9
2019-04-27T19:31:06.000Z,1.9
2019-04-27T19:34:06.000Z,1.9
2019-04-27T19:37:07.000Z,1.9
2019-04-27T19:40:06.000Z,1.9
2019-04-27T19:43:07.000Z,1.9
2019-04-27T19:46:06.000Z,1.9
2019-04-27T19:49:07.000Z,1.9
2019-04-27T19:52:06.000Z,1.9
2019-04-27T19:55:06.000Z,1.9
2019-04-27T19:58:07.000Z,1.9
2019-04-27T20:01:07.000Z,1.9
2019-04-27T20:04:07.000Z,1.9
2019-04-27T20:07:06.000Z,1.9
2019-04-27T20:10:07.000Z,1.9
2019-04-27T20:13:06.000Z,1.9
2019-04-27T20:16:06.000Z,1.9
2019-04-27T20:19:07.000Z,1.9
2019-04-27T20:22:07.000Z,1.9
2019-04-27T22:01:10.000Z,3.05
2019-04-27T22:04:11.000Z,3.05
2019-04-27T22:07:10.000Z,3.05
2019-04-27T22:10:10.000Z,3.05
2019-04-27T22:13:10.000Z,3.05
2019-04-27T22:16:11.000Z,3.05
2019-04-27T22:19:10.000Z,3.05
2019-04-27T22:22:11.000Z,3.05
2019-04-27T22:25:10.000Z,3.05
2019-04-27T22:28:10.000Z,3.05
2019-04-27T22:31:10.000Z,3.05
2019-04-27T22:34:10.000Z,3.05
2019-04-27T22:37:11.000Z,3.05
2019-04-27T22:40:11.000Z,3.05
2019-04-27T22:43:11.000Z,3.05
2019-04-27T22:46:10.000Z,3.05
2019-04-27T22:49:11.000Z,3.05
2019-04-27T22:52:11.000Z,3.05
2019-04-27T22:55:11.000Z,3.05
2019-04-27T22:58:10.000Z,3.05
2019-04-27T23:01:10.000Z,2.61
2019-04-27T23:04:10.000Z,2.61
2019-04-27T23:07:10.000Z,2.61
2019-04-27T23:10:10.000Z,2.61
2019-04-27T23:13:10.000Z,2.61
2019-04-27T23:16:10.000Z,2.61
2019-04-27T23:19:10.000Z,2.61
2019-04-27T23:22:10.000Z,2.61
2019-04-27T23:25:10.000Z,2.61
2019-04-27T23:28:10.000Z,2.61
2019-04-27T23:31:10.000Z,2.61
2019-04-27T23:34:10.000Z,2.61
2019-04-27T23:37:10.000Z,2.61
2019-04-27T23:40:10.000Z,2.61
2019-04-27T23:43:10.000Z,2.61
2019-04-27T23:46:10.000Z,2.61
2019-04-27T23:49:11.000Z,2.61
2019-04-27T23:52:10.000Z,2.61
2019-04-27T23:55:10.000Z,2.61
2019-04-27T23:58:10.000Z,2.61
